Davilla, TX (76523)

10:54 PM CDT on September 01, 2014 (GMT -0500)
Waters-Thomas Rockdale | Change Station
CLOSE
Current Station
Personal Weather Station
Location: Rockdale, TX
Elevation: 450 ft
Nearby Weather Stations

Elev 450 ft 30.63 °N, 97.01 °W | Updated 3 minutes ago

Clear
Clear
84.1 °F
Feels Like 91 °F
N
4.0
Wind Variable Wind from ESE
Gusts 4.0 mph

Today
High -- | Low -- °F
--% Chance of Precip.
Yesterday
High -- | Low -- °F
Precip. -- in
7:05 AM 7:51 PM
Waxing Crescent, 47% visible
Pressure 29.91 in
Visibility 10.0 miles
Clouds Clear
Heat Index 91 °F
Dew Point 73 °F
Humidity 70%
Rainfall 0.00 in
Snow Depth Not available.
UV 0 out of 12
Pollen 8.50 out of 12
Air Quality Not available.
Flu Activity Not available.
METAR KT35 020335Z AUTO 16009KT 10SM CLR 30/21 A2991 RMK AO2 T02960206

More Conditions Fewer Conditions

Pressure 29.91 in
Visibility 10.0 miles
Clouds Clear
Heat Index 91 °F
Dew Point 73 °F
Humidity 70%
Rainfall 0.00 in
Snow Depth Not available.
UV 0 out of 12
Pollen 8.50 out of 12
Air Quality Not available.
Flu Activity Not available.
METAR KT35 020335Z AUTO 16009KT 10SM CLR 30/21 A2991 RMK AO2 T02960206

More Conditions Fewer Conditions

10-Day Weather Forecast

Almanac

Astronomy

Sep. 01, 2014 Rise Set
Actual Time 7:05 AM CDT 7:51 PM CDT
Civil Twilight 6:40 AM CDT 8:16 PM CDT
Nautical Twilight 6:11 AM CDT 8:45 PM CDT
Astronomical Twilight 5:41 AM CDT 9:14 PM CDT
Moon 1:25 PM CDT (9/1) No Moon Set
Length of Visible Light 13h 35m
Length of Day
12h 46m
Tomorrow will be 1m 48s shorter.
Waxing Crescent, 47% of the Moon is Illuminated
Today
Waxing Crescent
Sep 2
First Quarter
Sep 8
Full
Sep 15
Last Quarter
Sep 24
New

Today's Extremes

State Highs State Lows

Community

WunderPhotos

Upload Photos

1,749,557 photos uploaded!

WunderBlogs® & News

Nearby

Snow Depth

Station Depth Elevation
No new snow has been reported.

Earthquake Activity

City Distance Mag. Time & Date
No recent earthquake activity has been reported nearby.
Minimum magnitude displayed is 2.5.

Coastal Water Temperatures

Place Temperature
No Stations Reporting

Nearby Weather Stations